createdAt,value
2017-05-30T00:00:02.953Z,34.32
2017-05-30T00:02:33.902Z,31.20
2017-05-30T00:05:04.918Z,35.52
2017-05-30T00:07:35.780Z,33.52
2017-05-30T00:10:08.289Z,36.14
2017-05-30T00:12:40.432Z,34.48
2017-05-30T00:15:11.435Z,37.06
2017-05-30T00:20:22.598Z,35.06
2017-05-30T00:22:53.836Z,34.30
2017-05-30T00:25:24.703Z,34.96
2017-05-30T00:27:55.767Z,29.06
2017-05-30T00:30:26.637Z,31.58
2017-05-30T00:32:57.675Z,33.38
2017-05-30T00:35:28.602Z,26.88
2017-05-30T00:37:59.638Z,36.08
2017-05-30T00:40:30.637Z,31.20
2017-05-30T00:43:02.803Z,34.00
2017-05-30T00:45:33.900Z,33.46
2017-05-30T00:48:05.396Z,34.10
2017-05-30T00:50:36.422Z,36.06
2017-05-30T00:53:07.276Z,32.92
2017-05-30T00:55:38.086Z,34.06
2017-05-30T00:58:09.213Z,32.84
2017-05-30T01:00:40.162Z,34.22
2017-05-30T01:03:11.074Z,35.06
2017-05-30T01:05:42.704Z,36.92
2017-05-30T01:08:13.663Z,31.90
2017-05-30T01:10:44.671Z,36.64
2017-05-30T01:13:16.939Z,35.50
2017-05-30T01:15:47.938Z,36.68
2017-05-30T01:18:19.628Z,36.44
2017-05-30T01:20:50.611Z,38.44
2017-05-30T01:23:21.787Z,40.90
2017-05-30T01:25:52.981Z,41.02
2017-05-30T01:28:24.041Z,42.80
2017-05-30T01:30:54.539Z,45.28
2017-05-30T01:33:25.779Z,45.88
2017-05-30T01:35:55.853Z,41.52
2017-05-30T01:38:28.350Z,44.32
2017-05-30T01:40:59.417Z,47.36
2017-05-30T01:43:32.429Z,46.80
2017-05-30T01:46:03.421Z,51.50
2017-05-30T01:48:35.195Z,45.64
2017-05-30T01:51:06.593Z,50.76
2017-05-30T01:53:37.527Z,50.14
2017-05-30T01:56:08.364Z,43.46
2017-05-30T01:58:39.316Z,41.46
2017-05-30T02:01:11.746Z,44.08
2017-05-30T02:03:43.379Z,44.76
2017-05-30T02:06:14.319Z,40.14
2017-05-30T02:08:45.392Z,43.16
2017-05-30T02:11:16.717Z,43.42
2017-05-30T02:13:49.491Z,46.08
2017-05-30T02:16:21.222Z,42.58
2017-05-30T02:18:52.639Z,39.64
2017-05-30T02:21:23.675Z,47.00
2017-05-30T02:23:56.075Z,44.90
2017-05-30T02:26:26.922Z,46.52
2017-05-30T02:28:59.350Z,45.44
2017-05-30T02:31:30.993Z,42.82
2017-05-30T02:34:02.272Z,48.44
2017-05-30T02:36:33.401Z,50.70
2017-05-30T02:39:07.460Z,45.36
2017-05-30T02:41:38.921Z,53.52
2017-05-30T02:44:11.872Z,51.58
2017-05-30T02:46:42.825Z,53.00
2017-05-30T02:49:14.120Z,63.50
2017-05-30T02:51:45.127Z,73.00
2017-05-30T02:54:16.237Z,57.16
2017-05-30T02:56:47.338Z,69.34
2017-05-30T02:59:18.314Z,46.04
2017-05-30T03:01:49.987Z,69.86
2017-05-30T03:04:21.465Z,70.34
2017-05-30T03:06:52.555Z,79.94
2017-05-30T03:09:23.561Z,83.58
2017-05-30T03:13:13.759Z,94.82
2017-05-30T03:15:46.018Z,91.72
2017-05-30T03:18:16.971Z,90.86
2017-05-30T03:20:48.544Z,86.48
2017-05-30T03:23:19.692Z,83.78
2017-05-30T03:25:51.911Z,84.64
2017-05-30T03:28:22.970Z,88.32
2017-05-30T03:30:54.039Z,94.94
2017-05-30T03:33:24.949Z,91.00
2017-05-30T03:35:56.824Z,87.60
2017-05-30T03:38:27.831Z,86.62
2017-05-30T03:40:58.786Z,89.22
2017-05-30T03:43:30.622Z,92.24
2017-05-30T03:46:04.194Z,90.96
2017-05-30T03:48:35.280Z,86.62
2017-05-30T03:51:06.559Z,85.64
2017-05-30T03:53:37.595Z,79.18
2017-05-30T03:56:08.643Z,81.36
2017-05-30T03:58:39.505Z,78.10
2017-05-30T04:01:10.403Z,79.02
2017-05-30T04:03:41.280Z,75.00
2017-05-30T04:06:12.178Z,75.78
2017-05-30T04:08:43.460Z,75.50
2017-05-30T04:11:14.557Z,79.80
2017-05-30T04:13:45.464Z,71.82
2017-05-30T04:16:17.105Z,71.54
2017-05-30T04:18:48.791Z,68.66
2017-05-30T04:21:19.741Z,63.50
2017-05-30T04:23:50.763Z,59.80
2017-05-30T04:26:21.846Z,57.24
2017-05-30T04:28:52.979Z,59.24
2017-05-30T04:31:24.062Z,58.28
2017-05-30T04:33:56.974Z,55.20
2017-05-30T04:36:28.234Z,54.78
2017-05-30T04:39:00.900Z,55.86
2017-05-30T04:41:33.022Z,53.14
2017-05-30T04:44:05.470Z,47.48
2017-05-30T04:46:37.431Z,54.10
2017-05-30T04:49:10.036Z,52.68
2017-05-30T04:51:41.443Z,47.76
2017-05-30T04:54:12.573Z,49.52
2017-05-30T04:56:44.515Z,46.82
2017-05-30T04:59:15.484Z,46.04
2017-05-30T05:01:46.464Z,47.26
2017-05-30T05:04:17.373Z,45.02
2017-05-30T05:06:48.646Z,43.64
2017-05-30T05:09:19.833Z,40.84
2017-05-30T05:11:51.120Z,42.28
2017-05-30T05:14:32.051Z,42.66
2017-05-30T05:17:04.872Z,40.00
2017-05-30T05:19:37.697Z,40.80
2017-05-30T05:22:09.689Z,43.48
2017-05-30T05:24:41.137Z,38.22
2017-05-30T05:27:12.291Z,40.06
2017-05-30T05:29:44.326Z,39.34
2017-05-30T05:32:16.538Z,36.74
2017-05-30T05:34:49.602Z,37.64
2017-05-30T05:37:21.495Z,37.84
2017-05-30T05:39:52.958Z,38.52
2017-05-30T05:42:24.052Z,36.52
2017-05-30T05:44:55.657Z,36.62
2017-05-30T05:47:26.738Z,29.32
2017-05-30T05:49:57.769Z,30.62
2017-05-30T05:52:29.295Z,27.18
2017-05-30T05:55:01.600Z,28.38
2017-05-30T05:57:33.425Z,27.96
2017-05-30T06:00:04.486Z,25.14
2017-05-30T06:02:35.574Z,21.46
2017-05-30T06:05:06.710Z,23.12
2017-05-30T06:07:37.880Z,23.70
2017-05-30T06:10:08.909Z,23.08
2017-05-30T06:12:41.184Z,22.26
2017-05-30T06:15:12.271Z,19.62
2017-05-30T06:17:44.140Z,22.08
2017-05-30T06:20:15.423Z,21.36
2017-05-30T06:22:46.925Z,22.74
2017-05-30T06:25:17.954Z,19.84
2017-05-30T06:27:49.171Z,19.80
2017-05-30T06:30:20.775Z,19.20
2017-05-30T06:32:53.345Z,17.24
2017-05-30T06:35:26.075Z,17.80
2017-05-30T06:37:57.507Z,18.54
2017-05-30T06:40:28.482Z,18.42
2017-05-30T06:42:59.555Z,18.62
2017-05-30T06:45:30.657Z,18.74
2017-05-30T06:48:02.304Z,18.08
2017-05-30T06:50:34.437Z,27.62
2017-05-30T06:53:06.878Z,16.60
2017-05-30T06:55:38.393Z,17.42
2017-05-30T06:58:10.815Z,19.84
2017-05-30T07:00:41.826Z,16.12
2017-05-30T07:03:12.955Z,19.14
2017-05-30T07:05:43.916Z,20.08
2017-05-30T07:08:14.874Z,18.76
2017-05-30T07:10:45.933Z,22.08
2017-05-30T07:13:16.999Z,19.68
2017-05-30T07:15:47.931Z,24.24
2017-05-30T07:18:19.545Z,21.44
2017-05-30T07:20:50.518Z,19.44
2017-05-30T07:23:21.922Z,18.48
2017-05-30T07:25:52.887Z,17.50
2017-05-30T07:28:23.887Z,16.44
2017-05-30T07:30:54.308Z,19.98
2017-05-30T07:33:25.408Z,20.82
2017-05-30T07:35:57.405Z,16.98
2017-05-30T07:38:28.571Z,19.06
2017-05-30T07:41:00.518Z,17.84
2017-05-30T07:43:31.711Z,18.02
2017-05-30T07:46:02.887Z,15.78
2017-05-30T07:48:34.215Z,20.66
2017-05-30T07:51:05.405Z,17.82
2017-05-30T07:53:36.847Z,17.84
2017-05-30T07:56:08.028Z,18.12
2017-05-30T07:58:41.242Z,15.44
2017-05-30T08:01:12.325Z,15.62
2017-05-30T08:03:43.388Z,17.52
2017-05-30T08:06:14.428Z,15.48
2017-05-30T08:08:45.521Z,16.46
2017-05-30T08:11:16.514Z,16.04
2017-05-30T08:13:46.885Z,15.54
2017-05-30T08:16:17.083Z,16.98
2017-05-30T08:18:47.249Z,18.90
2017-05-30T08:21:18.216Z,16.88
2017-05-30T08:23:49.475Z,15.32
2017-05-30T08:26:20.624Z,17.50
2017-05-30T08:28:51.720Z,15.82
2017-05-30T08:31:22.659Z,13.26
2017-05-30T08:33:53.761Z,17.32
2017-05-30T08:36:26.170Z,13.80
2017-05-30T08:38:59.184Z,14.86
2017-05-30T08:41:30.300Z,13.14
2017-05-30T08:44:01.384Z,15.44
2017-05-30T08:46:31.932Z,14.62
2017-05-30T08:49:05.736Z,15.96
2017-05-30T08:51:38.440Z,14.18
2017-05-30T08:54:10.533Z,15.82
2017-05-30T08:56:41.572Z,16.04
2017-05-30T08:59:12.653Z,12.12
2017-05-30T09:01:44.454Z,13.64
2017-05-30T09:04:15.774Z,11.90
2017-05-30T09:06:46.954Z,11.08
2017-05-30T09:09:18.115Z,12.94
2017-05-30T09:11:49.172Z,13.46
2017-05-30T09:14:20.347Z,14.10
2017-05-30T09:16:51.330Z,12.74
2017-05-30T09:19:24.180Z,13.68
2017-05-30T09:21:55.800Z,15.52
2017-05-30T09:24:27.293Z,15.90
2017-05-30T09:26:58.373Z,15.50
2017-05-30T09:29:29.372Z,18.44
2017-05-30T09:32:00.595Z,17.80
2017-05-30T09:34:32.043Z,17.22
2017-05-30T09:37:03.822Z,21.26
2017-05-30T09:39:34.915Z,22.52
2017-05-30T09:42:06.480Z,22.28
2017-05-30T09:44:39.073Z,21.54
2017-05-30T09:47:10.221Z,24.32
2017-05-30T09:49:43.201Z,31.68
2017-05-30T09:52:14.430Z,32.60
2017-05-30T09:54:46.064Z,28.90
2017-05-30T09:57:17.102Z,32.24
2017-05-30T09:59:48.692Z,26.56
2017-05-30T10:02:21.421Z,27.84
2017-05-30T10:05:56.076Z,34.92
2017-05-30T10:08:27.653Z,26.24
2017-05-30T10:10:59.162Z,27.68
2017-05-30T10:13:30.607Z,18.82
2017-05-30T10:16:01.721Z,20.10
2017-05-30T10:18:33.354Z,19.90
2017-05-30T10:21:06.836Z,21.56
2017-05-30T10:23:37.861Z,18.20
2017-05-30T10:26:08.966Z,24.00
2017-05-30T10:28:41.184Z,23.00
2017-05-30T10:31:12.529Z,20.28
2017-05-30T10:33:43.806Z,22.84
2017-05-30T10:36:14.709Z,20.06
2017-05-30T10:38:46.880Z,18.08
2017-05-30T10:41:18.043Z,20.58
2017-05-30T10:43:49.156Z,20.86
2017-05-30T10:46:20.489Z,17.86
2017-05-30T10:48:52.049Z,21.02
2017-05-30T10:51:24.525Z,19.42
2017-05-30T10:53:59.749Z,19.24
2017-05-30T10:56:32.064Z,19.92
2017-05-30T10:59:03.269Z,19.68
2017-05-30T11:01:34.877Z,20.04
2017-05-30T11:04:08.335Z,20.52
2017-05-30T11:06:41.288Z,19.24
2017-05-30T11:09:12.769Z,18.24
2017-05-30T11:11:43.919Z,18.00
2017-05-30T11:14:16.366Z,16.54
2017-05-30T11:16:48.415Z,16.00
2017-05-30T11:19:19.766Z,17.86
2017-05-30T11:21:51.282Z,17.70
2017-05-30T11:24:24.091Z,18.58
2017-05-30T11:26:58.444Z,22.48
2017-05-30T11:29:31.372Z,21.92
2017-05-30T11:32:02.569Z,20.74
2017-05-30T11:34:33.832Z,22.00
2017-05-30T11:37:04.967Z,21.30
2017-05-30T11:39:36.066Z,18.02
2017-05-30T11:42:07.224Z,17.00
2017-05-30T11:44:38.245Z,17.08
2017-05-30T11:47:09.528Z,16.30
2017-05-30T11:49:42.396Z,14.70
2017-05-30T11:52:14.533Z,12.28
2017-05-30T11:54:46.617Z,11.72
2017-05-30T11:57:17.977Z,9.20
2017-05-30T11:59:49.409Z,13.14
2017-05-30T12:02:20.568Z,10.64
2017-05-30T12:04:51.769Z,11.50
2017-05-30T12:07:23.622Z,11.16
2017-05-30T12:09:54.656Z,12.52
2017-05-30T12:12:26.458Z,11.62
2017-05-30T12:14:57.913Z,9.60
2017-05-30T12:17:29.065Z,11.20
2017-05-30T12:20:00.268Z,11.58
2017-05-30T12:22:31.461Z,9.84
2017-05-30T12:25:02.648Z,9.22
2017-05-30T12:27:34.132Z,12.08
2017-05-30T12:30:06.264Z,9.68
2017-05-30T12:32:38.266Z,10.88
2017-05-30T12:35:10.589Z,11.20
2017-05-30T12:37:41.719Z,8.76
2017-05-30T12:40:12.605Z,9.12
2017-05-30T12:42:43.529Z,8.18
2017-05-30T12:45:14.986Z,8.00
2017-05-30T12:47:46.119Z,12.26
2017-05-30T12:50:17.413Z,14.08
2017-05-30T12:52:49.142Z,13.48
2017-05-30T12:55:20.632Z,13.34
2017-05-30T12:57:51.910Z,14.68
2017-05-30T13:00:23.688Z,16.74
2017-05-30T13:02:55.402Z,13.74
2017-05-30T13:05:27.449Z,15.24
2017-05-30T13:07:58.547Z,15.64
2017-05-30T13:10:29.648Z,16.60
2017-05-30T13:13:01.167Z,15.28
2017-05-30T13:15:32.123Z,14.34
2017-05-30T13:18:04.576Z,13.72
2017-05-30T13:20:37.289Z,14.32
2017-05-30T13:24:28.300Z,17.10
2017-05-30T13:26:59.386Z,17.16
2017-05-30T13:29:30.988Z,16.52
2017-05-30T13:32:02.550Z,16.68
2017-05-30T13:34:33.885Z,19.98
2017-05-30T13:37:05.717Z,24.22
2017-05-30T13:39:37.289Z,24.28
2017-05-30T13:42:08.435Z,20.28
2017-05-30T13:44:39.728Z,23.40
2017-05-30T13:47:10.787Z,25.26
2017-05-30T13:49:42.028Z,25.76
2017-05-30T13:52:13.186Z,26.62
2017-05-30T13:54:45.612Z,26.22
2017-05-30T13:57:17.554Z,27.14
2017-05-30T13:59:49.749Z,29.98
2017-05-30T14:03:25.701Z,27.34
2017-05-30T14:05:57.491Z,24.98
2017-05-30T14:08:28.983Z,25.68
2017-05-30T14:11:04.599Z,25.44
2017-05-30T14:13:37.103Z,22.26
2017-05-30T14:16:08.643Z,23.04
2017-05-30T14:18:40.182Z,20.48
2017-05-30T14:21:12.578Z,15.32
2017-05-30T14:23:44.622Z,12.66
2017-05-30T14:26:18.246Z,14.20
2017-05-30T14:28:49.258Z,13.08
2017-05-30T14:31:20.443Z,12.56
2017-05-30T14:34:00.069Z,10.94
2017-05-30T14:36:31.151Z,10.50
2017-05-30T14:39:02.259Z,9.30
2017-05-30T14:41:35.873Z,8.62
2017-05-30T14:44:08.409Z,9.18
2017-05-30T14:46:39.442Z,8.08
2017-05-30T14:49:10.904Z,8.82
2017-05-30T14:51:42.164Z,8.46
2017-05-30T14:57:02.248Z,7.28
2017-05-30T14:59:34.388Z,8.08
2017-05-30T15:02:06.993Z,7.30
2017-05-30T15:04:37.777Z,5.80
2017-05-30T15:07:10.707Z,6.00
2017-05-30T15:09:41.835Z,5.52
2017-05-30T15:12:13.643Z,4.80
2017-05-30T15:14:46.841Z,5.82
2017-05-30T15:17:20.927Z,5.50
2017-05-30T15:19:56.028Z,5.04
2017-05-30T15:22:27.146Z,4.80
2017-05-30T15:24:58.214Z,6.34
2017-05-30T15:27:29.774Z,6.16
2017-05-30T15:30:00.863Z,5.50
2017-05-30T15:32:32.805Z,6.80
2017-05-30T15:35:03.819Z,3.36
2017-05-30T15:37:34.880Z,4.60
2017-05-30T15:40:05.926Z,3.76
2017-05-30T15:42:37.185Z,3.66
2017-05-30T15:45:08.616Z,5.42
2017-05-30T15:47:39.640Z,3.24
2017-05-30T15:50:11.042Z,3.22
2017-05-30T15:52:42.519Z,6.28
2017-05-30T15:55:13.835Z,3.72
2017-05-30T15:57:45.218Z,5.14
2017-05-30T16:00:16.236Z,2.74
2017-05-30T16:02:47.660Z,3.00
2017-05-30T16:05:18.664Z,2.36
2017-05-30T16:07:49.795Z,3.32
2017-05-30T16:10:20.886Z,3.32
2017-05-30T16:12:52.111Z,5.28
2017-05-30T16:15:23.989Z,5.40
2017-05-30T16:17:56.466Z,7.02
2017-05-30T16:20:27.368Z,3.20
2017-05-30T16:22:58.511Z,3.38
2017-05-30T16:25:29.516Z,4.10
2017-05-30T16:28:01.431Z,3.70
2017-05-30T16:30:32.520Z,4.78
2017-05-30T16:33:05.676Z,3.22
2017-05-30T16:35:36.772Z,4.56
2017-05-30T16:38:07.899Z,3.30
2017-05-30T16:40:39.378Z,3.72
2017-05-30T16:43:16.259Z,3.46
2017-05-30T16:48:28.726Z,7.08
2017-05-30T16:51:00.982Z,5.04
2017-05-30T16:53:32.363Z,3.32
2017-05-30T16:56:04.063Z,4.22
2017-05-30T16:58:35.149Z,4.28
2017-05-30T17:01:11.235Z,4.34
2017-05-30T17:06:40.163Z,5.52
2017-05-30T17:09:18.303Z,9.94
2017-05-30T17:11:49.224Z,7.66
2017-05-30T17:14:20.627Z,4.96
2017-05-30T17:16:51.495Z,4.46
2017-05-30T17:19:22.562Z,3.20
2017-05-30T17:21:53.613Z,4.84
2017-05-30T17:24:25.265Z,4.20
2017-05-30T17:26:56.341Z,4.38
2017-05-30T17:29:27.713Z,6.44
2017-05-30T17:31:58.683Z,4.48
2017-05-30T17:34:30.547Z,4.86
2017-05-30T17:37:01.521Z,4.80
2017-05-30T17:39:34.148Z,6.92
2017-05-30T17:43:23.964Z,5.74
2017-05-30T17:45:55.027Z,5.76
2017-05-30T17:48:26.430Z,7.00
2017-05-30T17:50:57.773Z,12.34
2017-05-30T17:53:28.746Z,11.26
2017-05-30T17:55:59.850Z,8.22
2017-05-30T17:58:31.386Z,10.58
2017-05-30T18:01:02.729Z,9.02
2017-05-30T18:03:34.139Z,6.98
2017-05-30T18:06:05.567Z,10.08
2017-05-30T18:08:36.484Z,12.58
2017-05-30T18:11:07.584Z,10.20
2017-05-30T18:13:39.837Z,17.26
2017-05-30T18:16:10.896Z,14.26
2017-05-30T18:18:42.445Z,22.70
2017-05-30T18:21:14.375Z,18.44
2017-05-30T18:23:46.231Z,17.44
2017-05-30T18:26:18.439Z,15.12
2017-05-30T18:28:49.626Z,15.82
2017-05-30T18:31:20.745Z,15.82
2017-05-30T18:33:51.765Z,18.16
2017-05-30T18:36:23.513Z,17.42
2017-05-30T18:38:57.184Z,19.08
2017-05-30T18:41:28.202Z,16.98
2017-05-30T18:44:00.781Z,23.58
2017-05-30T18:46:31.754Z,26.12
2017-05-30T18:49:02.763Z,17.76
2017-05-30T18:51:33.933Z,18.04
2017-05-30T18:54:06.962Z,19.60
2017-05-30T18:56:38.006Z,19.56
2017-05-30T18:59:10.251Z,15.88
2017-05-30T19:01:41.492Z,23.76
2017-05-30T19:04:12.597Z,17.56
2017-05-30T19:06:43.820Z,20.48
2017-05-30T19:09:14.841Z,17.36
2017-05-30T19:11:45.934Z,17.22
2017-05-30T19:14:17.971Z,21.38
2017-05-30T19:16:48.983Z,19.64
2017-05-30T19:19:19.885Z,19.14
2017-05-30T19:21:51.014Z,15.66
2017-05-30T19:24:22.059Z,17.52
2017-05-30T19:26:53.026Z,18.06
2017-05-30T19:29:24.038Z,16.58
2017-05-30T19:31:57.719Z,18.46
2017-05-30T19:34:29.782Z,15.58
2017-05-30T19:37:00.960Z,15.38
2017-05-30T19:39:31.930Z,17.64
2017-05-30T19:42:02.963Z,15.14
2017-05-30T19:44:33.896Z,16.30
2017-05-30T19:47:04.913Z,15.22
2017-05-30T19:49:35.976Z,15.74
2017-05-30T19:52:06.957Z,16.78
2017-05-30T19:54:38.000Z,16.84
2017-05-30T19:57:08.903Z,15.88
2017-05-30T19:59:39.854Z,13.88
2017-05-30T20:02:11.567Z,16.58
2017-05-30T20:04:43.317Z,14.34
2017-05-30T20:07:14.630Z,20.42
2017-05-30T20:09:45.658Z,13.50
2017-05-30T20:12:16.657Z,16.22
2017-05-30T20:14:47.578Z,14.88
2017-05-30T20:17:19.449Z,12.32
2017-05-30T20:19:51.588Z,15.86
2017-05-30T20:22:24.575Z,13.48
2017-05-30T20:24:55.596Z,14.16
2017-05-30T20:27:30.925Z,12.60
2017-05-30T20:30:01.976Z,12.04
2017-05-30T20:32:33.576Z,13.40
2017-05-30T20:35:06.258Z,15.40
2017-05-30T20:37:37.597Z,11.96
2017-05-30T20:40:08.576Z,13.08
2017-05-30T20:42:40.457Z,13.76
2017-05-30T20:45:11.341Z,15.24
2017-05-30T20:47:42.701Z,14.10
2017-05-30T20:50:16.156Z,13.44
2017-05-30T20:52:51.579Z,15.62
2017-05-30T20:55:22.455Z,12.44
2017-05-30T20:57:53.562Z,13.82
2017-05-30T21:00:24.684Z,10.88
2017-05-30T21:02:56.352Z,13.90
2017-05-30T21:05:28.424Z,11.92
2017-05-30T21:08:00.453Z,13.98
2017-05-30T21:10:31.166Z,11.62
2017-05-30T21:13:01.550Z,11.52
2017-05-30T21:15:32.510Z,16.12
2017-05-30T21:18:03.974Z,14.84
2017-05-30T21:20:36.020Z,13.20
2017-05-30T21:23:14.384Z,13.54
2017-05-30T21:25:47.987Z,11.38
2017-05-30T21:28:19.129Z,17.02
2017-05-30T21:30:51.789Z,12.72
2017-05-30T21:33:23.557Z,14.76
2017-05-30T21:35:54.583Z,13.20
2017-05-30T21:38:27.996Z,16.98
2017-05-30T21:40:59.925Z,13.96
2017-05-30T21:43:32.164Z,11.82
2017-05-30T21:46:03.115Z,8.52
2017-05-30T21:48:34.081Z,13.48
2017-05-30T21:51:05.144Z,8.52
2017-05-30T21:53:36.881Z,10.86
2017-05-30T21:56:07.827Z,11.00
2017-05-30T21:58:38.216Z,10.58
2017-05-30T22:01:09.156Z,9.04
2017-05-30T22:03:40.612Z,8.28
2017-05-30T22:06:11.636Z,7.84
2017-05-30T22:08:42.083Z,6.84
2017-05-30T22:11:12.885Z,6.54
2017-05-30T22:13:43.839Z,7.98
2017-05-30T22:16:15.372Z,5.84
2017-05-30T22:18:46.279Z,7.30
2017-05-30T22:21:17.214Z,4.62
2017-05-30T22:23:48.105Z,6.80
2017-05-30T22:26:19.125Z,7.40
2017-05-30T22:28:49.991Z,5.82
2017-05-30T22:31:22.139Z,6.72
2017-05-30T22:33:58.222Z,5.84
2017-05-30T22:36:29.202Z,5.04
2017-05-30T22:39:00.941Z,5.42
2017-05-30T22:41:32.000Z,6.58
2017-05-30T22:44:03.069Z,5.76
2017-05-30T22:46:34.803Z,6.22
2017-05-30T22:49:07.542Z,5.44
2017-05-30T22:51:38.574Z,6.52
2017-05-30T22:54:10.133Z,5.60
2017-05-30T22:56:41.159Z,8.54
2017-05-30T22:59:12.112Z,8.52
2017-05-30T23:01:43.050Z,5.74
2017-05-30T23:06:43.205Z,8.18
2017-05-30T23:09:14.938Z,6.48
2017-05-30T23:11:45.186Z,7.54
2017-05-30T23:14:16.263Z,6.48
2017-05-30T23:16:46.770Z,12.88
2017-05-30T23:19:16.911Z,8.32
2017-05-30T23:21:47.873Z,10.54
2017-05-30T23:24:18.069Z,7.54
2017-05-30T23:26:48.572Z,8.58
2017-05-30T23:29:18.719Z,13.54
2017-05-30T23:31:48.862Z,11.38
2017-05-30T23:34:19.065Z,8.98
2017-05-30T23:36:49.713Z,7.40
2017-05-30T23:39:19.895Z,8.75
2017-05-30T23:41:50.250Z,9.03
2017-05-30T23:44:20.467Z,8.42
2017-05-30T23:46:50.694Z,8.95
2017-05-30T23:49:22.315Z,9.65
2017-05-30T23:51:53.330Z,8.27
2017-05-30T23:54:23.582Z,13.43
2017-05-30T23:56:53.688Z,9.08
2017-05-30T23:59:23.910Z,11.75
